Time;durP1;ratioP1;P1;durP2;ratioP2;P2;SDS_P1;SDS_P2;PMS_P1;PMS_P2;Temp;Humidity;BMP_temperature;BMP_pressure;BME280_temperature;BME280_humidity;BME280_pressure;Samples;Min_cycle;Max_cycle;Signal;HPM_P1;HPM_P2
2021/12/10 00:00:01;;;;;;;6.28;2.15;;;;;;;18.60;46.64;99682.31;5033701;28;20051;-65
2021/12/10 00:02:33;;;;;;;6.72;2.13;;;;;;;18.59;46.60;99681.50;5033882;28;20056;-63
2021/12/10 00:04:59;;;;;;;6.75;2.28;;;;;;;18.59;46.89;99670.88;5051898;28;20045;-63
2021/12/10 00:07:27;;;;;;;7.22;2.58;;;;;;;18.51;47.07;99670.88;5017081;28;20052;-63
2021/12/10 00:10:00;;;;;;;7.43;2.40;;;;;;;18.52;47.06;99661.06;5034318;28;20037;-63
2021/12/10 00:12:29;;;;;;;6.57;2.10;;;;;;;18.46;46.68;99659.94;5051523;28;20055;-63
2021/12/10 00:14:55;;;;;;;7.30;2.23;;;;;;;18.43;46.87;99644.34;5035238;28;20083;-63
2021/12/10 00:17:22;;;;;;;7.78;2.60;;;;;;;18.42;46.70;99653.28;5068887;28;20307;-63
2021/12/10 00:19:50;;;;;;;7.03;2.47;;;;;;;18.46;47.02;99644.00;5051286;28;20041;-63
2021/12/10 00:22:21;;;;;;;6.35;2.33;;;;;;;18.42;46.85;99643.47;5033049;28;20095;-63
2021/12/10 00:24:48;;;;;;;7.38;2.38;;;;;;;18.37;46.17;99640.53;5050830;28;20432;-63
2021/12/10 00:27:13;;;;;;;6.43;2.50;;;;;;;18.36;46.46;99641.50;5051024;28;20040;-63
2021/12/10 00:29:42;;;;;;;5.80;2.30;;;;;;;18.34;46.85;99630.22;5051391;28;20029;-63
2021/12/10 00:32:18;;;;;;;7.47;2.67;;;;;;;18.34;46.56;99624.94;5033526;28;20041;-64
2021/12/10 00:34:46;;;;;;;7.40;2.53;;;;;;;18.30;46.41;99617.44;5034639;28;20378;-63
2021/12/10 00:37:13;;;;;;;5.70;2.38;;;;;;;18.35;46.50;99615.13;5033152;28;20058;-63
2021/12/10 00:39:44;;;;;;;5.57;2.47;;;;;;;18.30;46.46;99606.81;5033278;28;20497;-63
2021/12/10 00:42:14;;;;;;;7.43;2.65;;;;;;;18.32;46.05;99600.34;5032932;28;20504;-64
2021/12/10 00:44:39;;;;;;;;;;;;;;;18.28;46.32;99599.03;5066082;28;20119;-63
2021/12/10 00:47:05;;;;;;;6.68;2.20;;;;;;;18.23;46.09;99591.56;5070467;28;20023;-63
2021/12/10 00:49:30;;;;;;;5.65;2.30;;;;;;;18.21;46.40;99582.97;5070989;28;20048;-63
2021/12/10 00:51:56;;;;;;;5.95;2.20;;;;;;;18.18;46.53;99566.53;5070838;28;20044;-63
2021/12/10 00:54:21;;;;;;;6.25;2.10;;;;;;;18.18;46.26;99567.38;5051865;28;20055;-63
2021/12/10 00:56:47;;;;;;;8.23;2.42;;;;;;;18.22;45.95;99567.84;5070387;28;20528;-63
2021/12/10 00:59:12;;;;;;;5.15;2.08;;;;;;;18.19;46.49;99571.66;5052246;28;20546;-63
2021/12/10 01:01:38;;;;;;;6.82;2.50;;;;;;;18.17;46.04;99568.34;5070511;28;20036;-63
2021/12/10 01:04:26;;;;;;;7.68;1.98;;;;;;;18.16;46.19;99558.72;5051564;28;20067;-63
2021/12/10 01:06:52;;;;;;;5.78;2.33;;;;;;;18.13;46.11;99558.25;5052647;28;20610;-63
2021/12/10 01:09:19;;;;;;;8.13;2.67;;;;;;;18.14;46.36;99554.59;5052294;28;20059;-63
2021/12/10 01:11:51;;;;;;;7.13;2.40;;;;;;;18.09;46.01;99552.44;5070422;28;20032;-63
2021/12/10 01:14:32;;;;;;;6.38;2.53;;;;;;;18.08;45.95;99540.16;5069475;28;20040;-63
2021/12/10 01:25:24;;;;;;;6.13;2.60;;;;;;;18.02;46.05;99522.28;5041702;28;20094;-63
2021/12/10 01:27:49;;;;;;;5.00;2.20;;;;;;;17.96;46.01;99523.78;5050443;28;20392;-63
2021/12/10 01:30:19;;;;;;;5.70;2.10;;;;;;;17.99;46.25;99523.44;5049791;28;20559;-63
2021/12/10 01:32:56;;;;;;;5.53;2.22;;;;;;;17.98;46.00;99523.59;5050137;28;20072;-63
2021/12/10 01:35:30;;;;;;;6.80;2.80;;;;;;;17.95;46.00;99513.31;5049805;28;20132;-63
2021/12/10 01:37:56;;;;;;;6.03;2.38;;;;;;;17.97;45.94;99511.31;5033265;28;20120;-63
2021/12/10 01:40:24;;;;;;;7.05;2.45;;;;;;;17.93;46.21;99520.63;5048938;28;20041;-63
2021/12/10 01:42:52;;;;;;;6.75;2.60;;;;;;;17.94;45.92;99509.00;5051159;28;20123;-63
2021/12/10 01:45:26;;;;;;;5.25;2.60;;;;;;;17.90;46.11;99510.34;5067138;28;20037;-63
2021/12/10 01:48:07;;;;;;;5.47;2.67;;;;;;;17.90;46.25;99497.09;5069862;28;20787;-63
2021/12/10 01:50:33;;;;;;;8.88;2.70;;;;;;;17.86;45.97;99487.78;5051643;28;20102;-63
2021/12/10 01:53:00;;;;;;;6.68;2.40;;;;;;;17.88;46.01;99483.97;5069767;28;20032;-64
2021/12/10 01:55:26;;;;;;;6.22;2.70;;;;;;;17.86;45.92;99479.81;5068799;28;20044;-63
2021/12/10 01:57:52;;;;;;;7.25;2.63;;;;;;;17.83;45.97;99478.34;5051322;28;20033;-63
2021/12/10 02:00:19;;;;;;;5.15;2.40;;;;;;;17.83;45.69;99465.09;5051402;28;20450;-63
2021/12/10 02:02:45;;;;;;;5.15;2.33;;;;;;;17.85;45.89;99462.25;5035121;28;20054;-63
2021/12/10 02:05:11;;;;;;;6.43;2.70;;;;;;;17.87;45.98;99462.94;5069379;28;20047;-65
2021/12/10 02:07:36;;;;;;;6.03;2.47;;;;;;;17.83;45.68;99461.59;5068231;28;20040;-63
2021/12/10 02:10:05;;;;;;;7.32;2.70;;;;;;;17.84;45.66;99464.09;5068704;28;20040;-64
2021/12/10 02:12:30;;;;;;;7.03;2.30;;;;;;;17.80;45.80;99460.94;5049971;28;20558;-63
2021/12/10 02:15:01;;;;;;;5.38;2.55;;;;;;;17.84;46.18;99450.81;5051349;28;20037;-62
2021/12/10 02:17:36;;;;;;;5.25;2.33;;;;;;;17.83;45.59;99453.63;5049272;28;20123;-62
2021/12/10 02:20:10;;;;;;;6.50;2.38;;;;;;;17.80;45.61;99441.56;5067462;28;20089;-63
2021/12/10 02:22:36;;;;;;;5.90;2.40;;;;;;;17.77;45.49;99437.41;5069050;28;20043;-62
2021/12/10 02:25:02;;;;;;;6.55;2.58;;;;;;;17.73;45.85;99430.72;5033778;28;20029;-64
2021/12/10 02:27:28;;;;;;;6.30;2.67;;;;;;;17.73;45.67;99428.06;5068896;28;20052;-63
2021/12/10 02:29:53;;;;;;;6.40;2.50;;;;;;;17.72;45.72;99418.47;5068863;28;20029;-63
2021/12/10 02:32:19;;;;;;;7.28;2.47;;;;;;;17.72;46.28;99410.50;5050560;28;20041;-63
2021/12/10 02:34:46;;;;;;;5.65;2.53;;;;;;;17.72;45.83;99417.66;5068744;28;20604;-63
2021/12/10 02:37:12;;;;;;;5.60;2.22;;;;;;;17.71;45.48;99411.53;5068173;28;20048;-63
2021/12/10 02:39:37;;;;;;;4.57;2.17;;;;;;;17.72;45.21;99407.88;5050599;28;20127;-62
2021/12/10 02:42:03;;;;;;;5.28;2.15;;;;;;;17.70;45.39;99404.53;5068488;28;20719;-63
2021/12/10 02:44:29;;;;;;;4.32;1.88;;;;;;;17.72;45.54;99397.25;5068593;28;20036;-63
2021/12/10 02:46:54;;;;;;;6.88;2.50;;;;;;;17.70;45.33;99398.41;5050803;28;20124;-63
2021/12/10 02:49:20;;;;;;;6.07;2.40;;;;;;;17.66;45.74;99391.81;5039241;28;20049;-63
2021/12/10 02:51:46;;;;;;;6.03;2.20;;;;;;;17.63;45.75;99385.00;5030661;28;20045;-63
2021/12/10 02:54:14;;;;;;;5.82;2.10;;;;;;;17.60;45.73;99385.34;5047862;28;20095;-63
2021/12/10 02:56:39;;;;;;;5.75;2.33;;;;;;;17.60;45.39;99380.03;5048552;28;20044;-63
2021/12/10 02:59:05;;;;;;;7.07;2.20;;;;;;;17.56;45.73;99368.13;5048226;28;20413;-63
2021/12/10 03:01:34;;;;;;;4.15;1.80;;;;;;;17.56;45.58;99376.06;5048326;28;20029;-63
2021/12/10 03:04:00;;;;;;;4.22;2.13;;;;;;;17.56;45.64;99368.13;5030788;28;20160;-63
2021/12/10 03:06:27;;;;;;;7.57;2.78;;;;;;;17.55;45.49;99347.91;5048004;28;20036;-63
2021/12/10 03:08:53;;;;;;;5.13;2.25;;;;;;;17.55;45.57;99356.69;5049909;28;20044;-63
2021/12/10 03:11:21;;;;;;;4.45;1.77;;;;;;;17.57;45.33;99346.72;5049773;28;20043;-63
2021/12/10 03:13:46;;;;;;;5.05;2.15;;;;;;;17.52;45.39;99337.66;5050518;28;20097;-63
2021/12/10 03:16:12;;;;;;;4.78;2.33;;;;;;;17.50;45.27;99339.63;5016925;28;20591;-63
2021/12/10 03:18:37;;;;;;;6.13;1.90;;;;;;;17.48;45.34;99341.59;5063495;28;20232;-63
2021/12/10 03:21:03;;;;;;;6.00;1.95;;;;;;;17.50;45.31;99332.50;5067802;28;20037;-63
2021/12/10 03:23:29;;;;;;;6.60;2.20;;;;;;;17.46;45.27;99325.06;5068265;28;20036;-63
2021/12/10 03:25:54;;;;;;;4.63;1.70;;;;;;;17.44;45.59;99324.41;5068169;28;20503;-63
2021/12/10 03:28:20;;;;;;;4.28;1.73;;;;;;;17.43;45.33;99312.16;5067774;28;20150;-63
2021/12/10 03:30:50;;;;;;;5.40;1.60;;;;;;;17.42;45.88;99313.13;5068027;28;20801;-63
2021/12/10 03:33:15;;;;;;;4.95;1.73;;;;;;;17.41;45.67;99309.66;5067623;28;20528;-63
2021/12/10 03:35:43;;;;;;;5.60;1.98;;;;;;;17.38;45.57;99315.28;5049771;28;20040;-63
2021/12/10 03:38:14;;;;;;;5.80;1.88;;;;;;;17.39;45.55;99308.16;5049471;28;20714;-63
2021/12/10 03:40:39;;;;;;;5.35;1.90;;;;;;;17.41;45.74;99303.53;5067912;28;20039;-63
2021/12/10 03:43:05;;;;;;;4.75;1.83;;;;;;;17.36;45.31;99306.69;5067489;28;20048;-63
2021/12/10 03:45:33;;;;;;;4.35;1.75;;;;;;;17.35;44.97;99302.38;5049986;28;20093;-63
2021/12/10 03:48:06;;;;;;;5.15;1.73;;;;;;;17.34;45.38;99287.47;5050169;28;20115;-63
2021/12/10 03:50:32;;;;;;;4.30;1.70;;;;;;;17.37;45.42;99287.13;5067248;28;20094;-63
2021/12/10 03:52:57;;;;;;;5.57;1.80;;;;;;;17.34;45.64;99272.41;5067770;28;20234;-63
2021/12/10 03:55:23;;;;;;;5.30;1.90;;;;;;;17.35;45.20;99267.91;5049805;28;20044;-63
2021/12/10 03:57:49;;;;;;;4.03;1.25;;;;;;;17.30;45.29;99268.44;5067819;28;20510;-63
2021/12/10 04:00:15;;;;;;;4.45;1.70;;;;;;;17.31;45.23;99272.72;5049389;28;20032;-63
2021/12/10 04:02:40;;;;;;;5.45;1.73;;;;;;;17.30;45.39;99267.63;5049630;28;20120;-63
2021/12/10 04:05:06;;;;;;;5.63;1.67;;;;;;;17.30;45.69;99260.47;5066754;28;20049;-63
2021/12/10 04:07:31;;;;;;;4.45;1.38;;;;;;;17.31;45.62;99258.66;5049901;28;20036;-63
2021/12/10 04:09:57;;;;;;;4.68;1.70;;;;;;;17.28;45.12;99251.03;5049755;28;20041;-63
2021/12/10 04:12:22;;;;;;;3.80;1.55;;;;;;;17.29;45.05;99258.81;5067261;28;20484;-63
2021/12/10 04:14:48;;;;;;;3.97;1.45;;;;;;;17.27;45.59;99252.88;5067574;28;20113;-63
2021/12/10 04:17:14;;;;;;;4.57;1.65;;;;;;;17.27;45.41;99242.28;5066339;28;20036;-63
2021/12/10 04:19:40;;;;;;;5.40;1.50;;;;;;;17.23;45.53;99243.59;5045292;28;20071;-63
2021/12/10 04:22:06;;;;;;;3.33;1.25;;;;;;;17.27;45.48;99233.50;5067142;28;20132;-63
2021/12/10 04:24:33;;;;;;;5.15;1.48;;;;;;;17.25;45.51;99227.53;5049509;28;20446;-63
2021/12/10 04:26:59;;;;;;;4.53;1.38;;;;;;;17.27;45.67;99213.13;5066425;28;20064;-63
2021/12/10 04:29:25;;;;;;;3.92;1.42;;;;;;;17.23;45.07;99219.72;5049435;28;20504;-63
2021/12/10 04:31:51;;;;;;;4.45;1.45;;;;;;;17.21;45.50;99211.16;5051700;28;20036;-63
2021/12/10 04:34:17;;;;;;;5.22;1.70;;;;;;;17.20;45.76;99208.66;5052908;28;20104;-63
2021/12/10 04:36:43;;;;;;;4.30;1.40;;;;;;;17.19;45.36;99202.53;5070953;28;20528;-63
2021/12/10 04:39:10;;;;;;;4.47;1.55;;;;;;;17.19;45.07;99199.88;5070613;28;20040;-63
2021/12/10 04:41:36;;;;;;;3.67;1.60;;;;;;;17.21;45.16;99202.38;5036850;28;20060;-63
2021/12/10 04:44:02;;;;;;;3.72;1.48;;;;;;;17.23;45.57;99201.19;5070405;28;20040;-64
2021/12/10 04:46:27;;;;;;;3.15;1.33;;;;;;;17.18;45.05;99203.53;5053305;28;20074;-62
2021/12/10 04:48:57;;;;;;;4.75;1.58;;;;;;;17.22;45.37;99198.72;5052866;28;20040;-63
2021/12/10 04:51:24;;;;;;;4.50;1.40;;;;;;;17.17;45.24;99191.25;5070326;28;20070;-63
2021/12/10 04:53:49;;;;;;;2.90;1.42;;;;;;;17.12;45.52;99185.66;5070815;28;20032;-63
2021/12/10 04:56:15;;;;;;;5.60;1.30;;;;;;;17.17;45.63;99178.03;5052315;28;20492;-63
2021/12/10 04:58:40;;;;;;;4.00;1.13;;;;;;;17.13;45.02;99178.53;5070642;28;20185;-63
2021/12/10 05:01:06;;;;;;;2.83;1.30;;;;;;;17.15;45.71;99173.91;5069974;28;20056;-65
2021/12/10 05:03:31;;;;;;;3.92;1.23;;;;;;;17.14;45.74;99177.53;5070526;28;20573;-63
2021/12/10 05:06:02;;;;;;;3.15;1.30;;;;;;;17.09;45.35;99175.41;5070060;28;20123;-63
2021/12/10 05:08:27;;;;;;;2.65;1.25;;;;;;;17.12;45.44;99177.72;5069636;28;20582;-63
2021/12/10 05:10:53;;;;;;;4.25;1.38;;;;;;;17.09;45.41;99165.63;5019781;28;20033;-63
2021/12/10 05:13:18;;;;;;;2.90;1.00;;;;;;;17.15;45.37;99164.13;5069939;28;20424;-63
2021/12/10 05:15:44;;;;;;;3.78;1.40;;;;;;;17.19;44.97;99161.97;5070510;28;20102;-62
2021/12/10 05:18:12;;;;;;;3.65;1.33;;;;;;;17.23;45.25;99157.97;5069798;28;20045;-63
2021/12/10 05:20:38;;;;;;;4.53;1.30;;;;;;;17.32;44.82;99165.72;5070324;28;20114;-63
2021/12/10 05:23:04;;;;;;;5.05;1.52;;;;;;;17.37;44.87;99153.78;5051924;28;20036;-63
2021/12/10 05:25:30;;;;;;;3.92;1.30;;;;;;;17.45;45.00;99140.47;5070278;28;20043;-63
2021/12/10 05:27:56;;;;;;;3.78;1.17;;;;;;;17.55;44.93;99141.13;5036094;28;20033;-63
2021/12/10 05:30:22;;;;;;;3.88;1.20;;;;;;;17.61;44.82;99137.72;5051915;28;20048;-63
2021/12/10 05:32:48;;;;;;;3.95;1.25;;;;;;;17.70;44.46;99139.34;5052338;28;20124;-63
2021/12/10 05:35:13;;;;;;;4.40;1.40;;;;;;;17.78;44.72;99143.81;5050936;28;20044;-63
2021/12/10 05:37:39;;;;;;;3.40;1.10;;;;;;;17.87;44.24;99136.66;5069667;28;20515;-62
2021/12/10 05:40:05;;;;;;;4.30;1.08;;;;;;;17.99;44.24;99137.88;5051892;28;20056;-63
2021/12/10 05:42:31;;;;;;;2.70;1.10;;;;;;;18.07;44.03;99143.13;5069188;28;20753;-63
2021/12/10 05:44:56;;;;;;;2.83;1.20;;;;;;;18.18;44.54;99147.19;5051930;28;20550;-63
2021/12/10 05:47:22;;;;;;;3.65;1.23;;;;;;;18.29;44.17;99143.28;5051874;28;20081;-63
2021/12/10 05:49:47;;;;;;;2.72;0.98;;;;;;;18.41;44.22;99137.38;5069597;28;20455;-63
2021/12/10 05:52:14;;;;;;;3.28;0.80;;;;;;;18.49;44.42;99144.44;5051563;28;20048;-63
2021/12/10 05:54:40;;;;;;;3.05;0.90;;;;;;;18.57;43.91;99139.03;5069665;28;20036;-63
2021/12/10 05:57:05;;;;;;;2.38;0.88;;;;;;;18.62;43.93;99136.69;5051048;28;20044;-65
2021/12/10 05:59:31;;;;;;;3.22;0.98;;;;;;;18.66;44.01;99140.63;5051793;28;20503;-63
2021/12/10 06:01:56;;;;;;;2.10;0.90;;;;;;;18.70;44.16;99139.25;5047044;28;20041;-63
2021/12/10 06:04:26;;;;;;;4.05;0.98;;;;;;;18.75;43.47;99140.59;5035146;28;20047;-63
2021/12/10 06:06:52;;;;;;;3.00;0.88;;;;;;;18.76;43.68;99147.53;5069376;28;20704;-64
2021/12/10 06:09:17;;;;;;;2.67;0.75;;;;;;;18.79;43.77;99145.34;5068814;28;20297;-63
2021/12/10 06:11:43;;;;;;;2.33;0.85;;;;;;;18.82;44.44;99149.47;5069408;28;20051;-64
2021/12/10 06:14:09;;;;;;;2.67;0.80;;;;;;;18.84;44.28;99148.28;5050878;28;20043;-63
2021/12/10 06:16:34;;;;;;;1.92;0.80;;;;;;;18.84;44.12;99150.13;5069271;28;20374;-63
2021/12/10 06:19:00;;;;;;;4.00;0.80;;;;;;;18.87;44.41;99150.56;5050662;28;20382;-63
2021/12/10 06:21:26;;;;;;;3.00;0.93;;;;;;;18.88;44.61;99149.56;5068771;28;20117;-63
2021/12/10 06:23:51;;;;;;;2.85;0.75;;;;;;;18.90;44.99;99152.06;5067902;28;20048;-63
2021/12/10 06:26:17;;;;;;;3.10;0.98;;;;;;;18.92;44.68;99155.31;5068772;28;20115;-63
2021/12/10 06:28:44;;;;;;;2.40;0.88;;;;;;;18.95;44.42;99152.31;5034437;28;20125;-63
2021/12/10 06:31:14;;;;;;;3.65;0.95;;;;;;;18.98;44.26;99143.97;5068393;28;20037;-63
2021/12/10 06:33:39;;;;;;;2.78;0.73;;;;;;;19.02;44.31;99139.97;5050837;28;20048;-63
2021/12/10 06:36:06;;;;;;;2.70;0.77;;;;;;;19.05;44.76;99139.56;5067465;28;20656;-63
2021/12/10 06:38:31;;;;;;;3.13;0.77;;;;;;;19.07;44.38;99148.19;5068877;28;20036;-63
2021/12/10 06:40:56;;;;;;;2.75;0.80;;;;;;;19.12;44.19;99150.31;5050836;28;20043;-63
2021/12/10 06:43:22;;;;;;;3.22;0.82;;;;;;;19.14;44.22;99150.94;5068193;28;20123;-63
2021/12/10 06:45:48;;;;;;;3.65;0.85;;;;;;;19.17;44.33;99156.69;5062756;28;20116;-63
2021/12/10 06:48:14;;;;;;;2.17;0.75;;;;;;;19.16;44.43;99152.41;5014637;28;20455;-64
2021/12/10 06:50:42;;;;;;;2.20;0.75;;;;;;;19.19;44.60;99157.34;5058376;28;20051;-63
2021/12/10 06:53:08;;;;;;;2.15;0.60;;;;;;;19.18;45.15;99153.06;5013231;28;20121;-64
2021/12/10 06:55:33;;;;;;;2.35;0.80;;;;;;;19.19;45.00;99159.19;5030239;28;20401;-63
2021/12/10 06:57:59;;;;;;;4.63;1.00;;;;;;;19.20;45.17;99163.50;5030486;28;20069;-63
2021/12/10 07:00:41;;;;;;;9.48;0.80;;;;;;;19.23;45.05;99156.97;5044600;28;20040;-64
2021/12/10 07:03:09;;;;;;;2.28;0.80;;;;;;;19.26;44.61;99159.28;5031382;28;20501;-64
2021/12/10 07:05:34;;;;;;;4.10;0.63;;;;;;;19.28;45.30;99163.41;5059546;28;20053;-63
2021/12/10 07:07:59;;;;;;;2.90;0.60;;;;;;;19.27;44.83;99153.75;5028622;28;20057;-63
2021/12/10 07:10:25;;;;;;;3.47;0.75;;;;;;;19.31;45.30;99167.53;5029466;28;20370;-63
2021/12/10 07:12:51;;;;;;;2.10;0.63;;;;;;;19.30;44.69;99161.38;5046094;28;20110;-63
2021/12/10 07:15:17;;;;;;;3.75;0.90;;;;;;;19.31;45.35;99163.03;5012152;28;20067;-63
2021/12/10 07:17:47;;;;;;;2.65;0.82;;;;;;;19.17;44.21;99159.34;5058602;28;20041;-63
2021/12/10 07:20:13;;;;;;;6.30;1.00;;;;;;;19.05;44.64;99166.13;5043615;28;20056;-63
2021/12/10 07:22:38;;;;;;;3.13;0.85;;;;;;;19.11;45.51;99165.41;5007920;28;20120;-63
2021/12/10 07:25:04;;;;;;;3.90;1.05;;;;;;;19.23;44.60;99167.63;5033797;28;20035;-64
2021/12/10 07:27:30;;;;;;;6.22;0.80;;;;;;;19.29;44.76;99166.88;5047464;28;20051;-63
2021/12/10 07:29:55;;;;;;;7.57;0.68;;;;;;;19.30;45.10;99168.53;5047430;28;20393;-63
2021/12/10 07:32:21;;;;;;;6.55;0.90;;;;;;;19.30;45.56;99179.16;5028795;28;20088;-63
2021/12/10 07:34:46;;;;;;;3.08;0.77;;;;;;;19.26;46.13;99173.38;5025620;28;20029;-62
2021/12/10 07:37:11;;;;;;;3.35;0.68;;;;;;;19.28;44.94;99175.88;5052009;28;20079;-64
2021/12/10 07:39:37;;;;;;;4.22;0.80;;;;;;;19.27;44.90;99169.72;5030907;28;20040;-63
2021/12/10 07:42:04;;;;;;;3.28;0.80;;;;;;;19.32;44.78;99171.81;5027976;28;20040;-64
2021/12/10 07:44:30;;;;;;;2.80;0.82;;;;;;;19.35;45.43;99171.47;5046301;28;20570;-64
2021/12/10 07:46:55;;;;;;;2.85;0.82;;;;;;;19.36;45.02;99173.09;5033540;28;20063;-63
2021/12/10 07:49:28;;;;;;;3.25;0.73;;;;;;;19.37;45.24;99174.78;5052084;28;20094;-63
2021/12/10 07:51:54;;;;;;;4.72;0.68;;;;;;;19.37;45.34;99174.78;5064969;28;20111;-63
2021/12/10 07:54:20;;;;;;;4.13;0.68;;;;;;;19.33;44.96;99173.47;5031658;28;20040;-63
2021/12/10 07:56:46;;;;;;;2.00;0.65;;;;;;;19.32;45.15;99171.81;5048877;28;20043;-63
2021/12/10 07:59:11;;;;;;;5.43;0.80;;;;;;;19.30;45.58;99185.28;5027380;28;20123;-64
2021/12/10 08:01:37;;;;;;;3.17;0.80;;;;;;;19.30;45.55;99184.47;5057867;28;20112;-63
2021/12/10 08:04:03;;;;;;;3.47;0.73;;;;;;;19.28;45.82;99189.16;5052735;28;20401;-64
2021/12/10 08:06:29;;;;;;;2.97;0.82;;;;;;;19.28;44.99;99191.81;5067851;28;20067;-63
2021/12/10 08:08:55;;;;;;;3.30;0.90;;;;;;;19.28;45.24;99202.47;5059138;28;20495;-63
2021/12/10 08:11:20;;;;;;;2.67;0.65;;;;;;;19.28;45.54;99197.16;5050703;28;20045;-63
2021/12/10 08:13:46;;;;;;;5.60;1.02;;;;;;;19.23;45.43;99205.66;5050370;28;20509;-63
2021/12/10 08:16:11;;;;;;;3.83;0.70;;;;;;;19.18;45.99;99202.75;5032304;28;20041;-64
2021/12/10 08:18:37;;;;;;;4.28;1.02;;;;;;;19.17;46.11;99196.56;5052306;28;20044;-63
2021/12/10 08:21:02;;;;;;;2.55;0.60;;;;;;;19.23;45.69;99207.50;5070650;28;20032;-64
2021/12/10 08:23:28;;;;;;;3.00;0.70;;;;;;;19.26;45.72;99201.81;5052081;28;20036;-63
2021/12/10 08:25:54;;;;;;;5.22;0.77;;;;;;;19.30;45.24;99214.53;5070397;28;20032;-64
2021/12/10 08:28:22;;;;;;;3.95;0.77;;;;;;;19.31;46.04;99204.75;5052361;28;20139;-63
2021/12/10 08:30:48;;;;;;;4.03;0.80;;;;;;;19.27;46.12;99196.28;5063419;28;20123;-63
2021/12/10 08:33:14;;;;;;;4.32;0.77;;;;;;;19.33;45.31;99205.38;5053947;28;20128;-63
2021/12/10 08:35:45;;;;;;;3.78;0.90;;;;;;;19.32;45.55;99198.41;5065359;28;20449;-63
2021/12/10 08:38:10;;;;;;;2.75;1.00;;;;;;;19.40;45.57;99201.81;5049945;28;20056;-63
2021/12/10 08:40:41;;;;;;;4.35;0.80;;;;;;;19.37;45.90;99201.38;5049808;28;20083;-63
2021/12/10 08:43:06;;;;;;;4.20;0.75;;;;;;;19.39;46.20;99209.97;5031214;28;20559;-64
2021/12/10 08:45:32;;;;;;;3.00;0.68;;;;;;;19.41;46.28;99208.78;5057120;28;20037;-64
2021/12/10 08:47:57;;;;;;;2.28;0.60;;;;;;;19.43;46.14;99216.59;5040603;28;20039;-63
2021/12/10 08:50:24;;;;;;;2.38;0.60;;;;;;;19.43;46.43;99227.22;5042089;28;20048;-64
2021/12/10 08:52:51;;;;;;;7.57;0.80;;;;;;;19.41;47.26;99232.69;5046816;28;20047;-63
2021/12/10 08:55:17;;;;;;;4.93;0.90;;;;;;;19.39;47.43;99231.22;5014328;28;20167;-63
2021/12/10 08:57:43;;;;;;;3.65;0.70;;;;;;;19.42;46.48;99237.00;5040067;28;20043;-64
2021/12/10 09:00:09;;;;;;;3.85;0.65;;;;;;;19.44;46.25;99236.84;5031857;28;20059;-64
2021/12/10 09:02:37;;;;;;;2.90;0.70;;;;;;;19.41;46.69;99231.88;5058804;28;20428;-64
2021/12/10 09:05:07;;;;;;;2.10;0.70;;;;;;;19.38;45.95;99235.72;5051372;28;20036;-62
2021/12/10 09:07:32;;;;;;;3.97;0.98;;;;;;;19.37;46.18;99243.91;5041623;28;20043;-62
2021/12/10 09:09:58;;;;;;;2.72;0.90;;;;;;;19.12;45.44;99241.50;5034146;28;20033;-63
2021/12/10 09:12:25;;;;;;;2.70;0.70;;;;;;;19.13;46.58;99248.47;5068540;28;20726;-63
2021/12/10 09:14:54;;;;;;;6.07;0.80;;;;;;;19.14;46.29;99242.13;5067895;28;20070;-63
2021/12/10 09:17:24;;;;;;;2.75;0.70;;;;;;;19.13;46.44;99252.94;5059478;28;20048;-63
2021/12/10 09:19:50;;;;;;;2.95;0.70;;;;;;;19.12;45.89;99246.81;5069619;28;20450;-63
2021/12/10 09:22:15;;;;;;;1.65;0.65;;;;;;;19.18;46.24;99250.59;5069032;28;20043;-63
2021/12/10 09:24:42;;;;;;;3.60;0.90;;;;;;;19.18;45.88;99255.91;5035301;28;20044;-63
2021/12/10 09:27:10;;;;;;;2.53;0.68;;;;;;;19.23;46.07;99263.31;5063171;28;20067;-63
2021/12/10 09:29:38;;;;;;;2.53;0.70;;;;;;;19.18;46.03;99267.34;5069441;28;20451;-63
2021/12/10 09:32:05;;;;;;;3.20;0.85;;;;;;;19.18;45.39;99264.69;5068496;28;20495;-63
2021/12/10 09:34:30;;;;;;;5.22;0.98;;;;;;;19.19;45.68;99269.00;5051289;28;20064;-63
2021/12/10 09:36:56;;;;;;;3.40;0.80;;;;;;;19.18;45.93;99271.84;5044541;28;20133;-63
2021/12/10 09:39:21;;;;;;;2.58;0.70;;;;;;;19.18;46.01;99274.50;5048541;28;20072;-63
2021/12/10 09:41:47;;;;;;;1.67;0.60;;;;;;;19.18;45.90;99275.34;5054036;28;20048;-63
2021/12/10 09:44:13;;;;;;;2.03;0.70;;;;;;;19.18;45.57;99277.16;5033975;28;20032;-63
2021/12/10 09:46:38;;;;;;;3.22;0.80;;;;;;;19.19;45.15;99284.94;5034506;28;20051;-63
2021/12/10 09:49:05;;;;;;;3.58;0.80;;;;;;;19.21;45.11;99289.25;5068376;28;20048;-63
2021/12/10 09:51:33;;;;;;;4.65;1.17;;;;;;;19.19;45.61;99295.59;5051155;28;20044;-63
2021/12/10 09:54:00;;;;;;;2.33;0.70;;;;;;;19.17;45.13;99299.41;5052109;28;20040;-63
2021/12/10 09:56:26;;;;;;;3.03;0.82;;;;;;;19.12;45.26;99292.00;5030830;28;20094;-63
2021/12/10 09:58:56;;;;;;;4.78;0.90;;;;;;;19.13;45.17;99298.97;5033751;28;20451;-63
2021/12/10 10:01:24;;;;;;;4.20;0.98;;;;;;;19.12;45.32;99297.31;5051069;28;20127;-63
2021/12/10 10:03:50;;;;;;;4.22;0.80;;;;;;;19.12;45.01;99293.84;5067258;28;20044;-63
2021/12/10 10:06:16;;;;;;;4.43;1.00;;;;;;;19.14;45.42;99297.13;5057339;28;20037;-63
2021/12/10 10:08:41;;;;;;;1.85;0.65;;;;;;;19.13;44.68;99301.63;5030061;28;20386;-63
2021/12/10 10:11:10;;;;;;;2.53;0.80;;;;;;;19.11;45.45;99290.34;5038487;28;20048;-63
2021/12/10 10:13:37;;;;;;;2.30;0.80;;;;;;;19.10;45.22;99298.50;5050208;28;20036;-63
2021/12/10 10:16:03;;;;;;;3.00;0.95;;;;;;;19.10;44.58;99291.34;5032679;28;20124;-64
2021/12/10 10:18:29;;;;;;;3.17;0.80;;;;;;;19.07;45.33;99294.38;5048707;28;20044;-63
2021/12/10 10:20:58;;;;;;;3.13;0.77;;;;;;;19.10;45.54;99290.53;5050007;28;20044;-63
2021/12/10 10:23:24;;;;;;;4.18;0.63;;;;;;;19.12;44.48;99299.97;5062451;28;20127;-65
2021/12/10 10:25:51;;;;;;;3.53;0.77;;;;;;;19.17;44.58;99294.09;5053314;28;20049;-63
2021/12/10 10:28:16;;;;;;;3.78;0.70;;;;;;;19.22;44.96;99293.59;5048548;28;20041;-63
2021/12/10 10:30:56;;;;;;;4.03;1.25;;;;;;;19.19;45.28;99295.59;5047032;28;20033;-63
2021/12/10 10:33:22;;;;;;;2.67;0.93;;;;;;;19.16;45.46;99290.63;5057083;28;20039;-63
2021/12/10 10:35:50;;;;;;;3.30;1.00;;;;;;;19.22;44.59;99296.25;5049246;28;20143;-63
2021/12/10 10:38:16;;;;;;;3.47;1.00;;;;;;;19.25;45.03;99295.88;5054116;28;20056;-63
2021/12/10 10:40:47;;;;;;;3.63;0.80;;;;;;;19.22;45.13;99298.91;5047624;28;20632;-63
2021/12/10 10:43:12;;;;;;;;;;;;;;;19.18;44.64;99301.91;5047482;28;20041;-63
2021/12/10 10:45:39;;;;;;;3.70;1.15;;;;;;;19.18;44.75;99296.59;5045374;28;19924;-63
2021/12/10 10:48:05;;;;;;;3.75;0.98;;;;;;;19.15;45.19;99299.63;5052949;28;20116;-64
2021/12/10 10:50:34;;;;;;;3.58;0.93;;;;;;;19.16;44.77;99311.06;5066949;28;20067;-63
2021/12/10 10:53:08;;;;;;;3.67;0.90;;;;;;;19.14;44.87;99308.56;5032918;28;20128;-63
2021/12/10 10:55:40;;;;;;;3.05;0.90;;;;;;;19.14;45.23;99311.22;5048749;28;20040;-63
2021/12/10 10:58:13;;;;;;;2.90;0.80;;;;;;;19.12;45.47;99305.28;5066599;28;20044;-63
2021/12/10 11:00:51;;;;;;;5.22;1.00;;;;;;;18.91;44.70;99315.78;5043691;28;20040;-63
2021/12/10 11:05:11;;;;;;;1.77;0.73;;;;;;;19.09;45.09;99310.97;5012645;28;20413;-61
2021/12/10 11:07:44;;;;;;;3.22;1.05;;;;;;;19.12;45.51;99307.94;5010588;28;20128;-61
2021/12/10 11:10:09;;;;;;;5.03;1.17;;;;;;;19.15;44.64;99310.25;5022286;28;20137;-61
2021/12/10 11:12:36;;;;;;;3.65;0.70;;;;;;;19.17;44.69;99305.56;5006886;28;20410;-61
2021/12/10 11:15:07;;;;;;;2.33;0.80;;;;;;;19.20;44.54;99309.69;5022927;28;20046;-63
2021/12/10 11:17:38;;;;;;;2.90;0.90;;;;;;;19.21;45.14;99315.84;5010199;28;20045;-62
2021/12/10 11:20:16;;;;;;;4.38;0.90;;;;;;;19.32;45.09;99312.75;5003078;28;20043;-62
2021/12/10 11:22:52;;;;;;;3.05;1.10;;;;;;;19.19;44.03;99314.19;5006461;28;20069;-62
2021/12/10 11:25:23;;;;;;;5.65;1.40;;;;;;;18.94;43.83;99315.41;5006241;28;20062;-64
2021/12/10 11:27:49;;;;;;;5.30;0.98;;;;;;;19.03;45.32;99318.84;5018851;28;20076;-63
2021/12/10 11:30:23;;;;;;;3.38;1.10;;;;;;;19.09;45.14;99318.13;5025591;28;20084;-63
2021/12/10 11:32:56;;;;;;;3.05;1.00;;;;;;;19.19;45.77;99322.16;5002743;28;20509;-64
2021/12/10 11:35:24;;;;;;;3.88;1.13;;;;;;;19.26;44.59;99324.94;5012461;28;20100;-63
2021/12/10 11:37:58;;;;;;;3.97;1.05;;;;;;;19.30;45.08;99330.69;5011862;28;20049;-63
2021/12/10 11:40:35;;;;;;;3.40;1.10;;;;;;;19.33;44.85;99338.31;5024008;28;20044;-64
2021/12/10 11:43:20;;;;;;;3.50;1.05;;;;;;;19.36;45.34;99338.78;5022964;28;20488;-63